sensor_id;sensor_type;location;lat;lon;timestamp;temperature;humidity
23748;DHT22;12054;53.662;10.126;2023-02-01T00:00:05;5.00;99.90
23748;DHT22;12054;53.662;10.126;2023-02-01T00:02:30;5.00;99.90
23748;DHT22;12054;53.662;10.126;2023-02-01T00:04:56;5.10;99.90
23748;DHT22;12054;53.662;10.126;2023-02-01T00:07:21;5.00;99.90
23748;DHT22;12054;53.662;10.126;2023-02-01T00:09:47;5.00;99.90
23748;DHT22;12054;53.662;10.126;2023-02-01T00:12:12;5.00;99.90
23748;DHT22;12054;53.662;10.126;2023-02-01T00:14:39;5.00;99.90
23748;DHT22;12054;53.662;10.126;2023-02-01T00:17:08;5.00;99.90
23748;DHT22;12054;53.662;10.126;2023-02-01T00:19:34;5.00;99.90
23748;DHT22;12054;53.662;10.126;2023-02-01T00:21:59;4.90;99.90
23748;DHT22;12054;53.662;10.126;2023-02-01T00:24:25;4.90;99.90
23748;DHT22;12054;53.662;10.126;2023-02-01T00:26:51;4.90;99.90
23748;DHT22;12054;53.662;10.126;2023-02-01T00:29:18;5.00;99.90
23748;DHT22;12054;53.662;10.126;2023-02-01T00:31:44;5.00;99.90
23748;DHT22;12054;53.662;10.126;2023-02-01T00:34:12;5.00;99.90
23748;DHT22;12054;53.662;10.126;2023-02-01T00:36:38;5.00;99.90
23748;DHT22;12054;53.662;10.126;2023-02-01T00:39:04;5.00;99.90
23748;DHT22;12054;53.662;10.126;2023-02-01T00:41:30;5.00;99.90
23748;DHT22;12054;53.662;10.126;2023-02-01T00:43:55;5.00;99.90
23748;DHT22;12054;53.662;10.126;2023-02-01T00:46:21;5.00;99.90
23748;DHT22;12054;53.662;10.126;2023-02-01T00:48:47;5.00;99.90
23748;DHT22;12054;53.662;10.126;2023-02-01T00:51:16;5.00;99.90
23748;DHT22;12054;53.662;10.126;2023-02-01T00:53:42;5.00;99.90
23748;DHT22;12054;53.662;10.126;2023-02-01T00:56:08;5.00;99.90
23748;DHT22;12054;53.662;10.126;2023-02-01T00:58:33;5.00;99.90
23748;DHT22;12054;53.662;10.126;2023-02-01T01:01:14;5.00;99.90
23748;DHT22;12054;53.662;10.126;2023-02-01T01:03:43;5.10;99.90
23748;DHT22;12054;53.662;10.126;2023-02-01T01:06:11;5.10;99.90
23748;DHT22;12054;53.662;10.126;2023-02-01T01:08:38;5.10;99.90
23748;DHT22;12054;53.662;10.126;2023-02-01T01:11:08;5.10;99.90
23748;DHT22;12054;53.662;10.126;2023-02-01T01:13:34;5.10;99.90
23748;DHT22;12054;53.662;10.126;2023-02-01T01:16:01;5.10;99.90
23748;DHT22;12054;53.662;10.126;2023-02-01T01:18:29;5.10;99.90
23748;DHT22;12054;53.662;10.126;2023-02-01T01:20:55;5.20;99.90
23748;DHT22;12054;53.662;10.126;2023-02-01T01:23:20;5.20;99.90
23748;DHT22;12054;53.662;10.126;2023-02-01T01:25:46;5.20;99.90
23748;DHT22;12054;53.662;10.126;2023-02-01T01:28:11;5.20;99.90
23748;DHT22;12054;53.662;10.126;2023-02-01T01:30:38;5.20;99.90
23748;DHT22;12054;53.662;10.126;2023-02-01T01:33:04;5.20;99.90
23748;DHT22;12054;53.662;10.126;2023-02-01T01:35:30;5.30;99.90
23748;DHT22;12054;53.662;10.126;2023-02-01T01:37:56;5.30;99.90
23748;DHT22;12054;53.662;10.126;2023-02-01T01:40:22;5.30;99.90
23748;DHT22;12054;53.662;10.126;2023-02-01T01:42:47;5.30;99.90
23748;DHT22;12054;53.662;10.126;2023-02-01T01:45:32;5.30;99.90
23748;DHT22;12054;53.662;10.126;2023-02-01T01:48:01;5.30;99.90
23748;DHT22;12054;53.662;10.126;2023-02-01T01:50:32;5.30;99.90
23748;DHT22;12054;53.662;10.126;2023-02-01T01:53:01;5.30;99.90
23748;DHT22;12054;53.662;10.126;2023-02-01T01:55:32;5.30;99.90
23748;DHT22;12054;53.662;10.126;2023-02-01T01:58:05;5.30;99.90
23748;DHT22;12054;53.662;10.126;2023-02-01T02:00:32;5.30;99.90
23748;DHT22;12054;53.662;10.126;2023-02-01T02:03:12;5.30;99.90
23748;DHT22;12054;53.662;10.126;2023-02-01T02:05:39;5.40;99.90
23748;DHT22;12054;53.662;10.126;2023-02-01T02:08:05;5.40;99.90
23748;DHT22;12054;53.662;10.126;2023-02-01T02:10:31;5.40;99.90
23748;DHT22;12054;53.662;10.126;2023-02-01T02:13:16;5.40;99.90
23748;DHT22;12054;53.662;10.126;2023-02-01T02:16:04;5.40;99.90
23748;DHT22;12054;53.662;10.126;2023-02-01T02:18:44;5.40;99.90
23748;DHT22;12054;53.662;10.126;2023-02-01T02:21:23;5.40;99.90
23748;DHT22;12054;53.662;10.126;2023-02-01T02:27:00;5.50;99.90
23748;DHT22;12054;53.662;10.126;2023-02-01T02:29:45;5.50;99.90
23748;DHT22;12054;53.662;10.126;2023-02-01T02:37:40;5.50;99.90
23748;DHT22;12054;53.662;10.126;2023-02-01T02:49:11;5.50;99.90
23748;DHT22;12054;53.662;10.126;2023-02-01T02:51:43;5.60;99.90
23748;DHT22;12054;53.662;10.126;2023-02-01T02:54:32;5.60;99.90
23748;DHT22;12054;53.662;10.126;2023-02-01T02:57:26;5.60;99.90
23748;DHT22;12054;53.662;10.126;2023-02-01T03:00:15;5.60;99.90
23748;DHT22;12054;53.662;10.126;2023-02-01T03:03:00;5.50;99.90
23748;DHT22;12054;53.662;10.126;2023-02-01T03:05:47;5.50;99.90
23748;DHT22;12054;53.662;10.126;2023-02-01T03:08:24;5.50;99.90
23748;DHT22;12054;53.662;10.126;2023-02-01T03:11:12;5.50;99.90
23748;DHT22;12054;53.662;10.126;2023-02-01T03:13:59;5.50;99.90
23748;DHT22;12054;53.662;10.126;2023-02-01T03:19:02;5.40;99.90
23748;DHT22;12054;53.662;10.126;2023-02-01T03:21:38;5.40;99.90
23748;DHT22;12054;53.662;10.126;2023-02-01T03:24:31;5.40;99.90
23748;DHT22;12054;53.662;10.126;2023-02-01T03:27:03;5.40;99.90
23748;DHT22;12054;53.662;10.126;2023-02-01T03:29:54;5.40;99.90
23748;DHT22;12054;53.662;10.126;2023-02-01T03:32:21;5.30;99.90
23748;DHT22;12054;53.662;10.126;2023-02-01T03:34:48;5.40;99.90
23748;DHT22;12054;53.662;10.126;2023-02-01T03:37:19;5.30;99.90
23748;DHT22;12054;53.662;10.126;2023-02-01T03:40:02;5.30;99.90
23748;DHT22;12054;53.662;10.126;2023-02-01T03:42:40;5.30;99.90
23748;DHT22;12054;53.662;10.126;2023-02-01T03:45:14;5.30;99.90
23748;DHT22;12054;53.662;10.126;2023-02-01T03:47:46;5.30;99.90
23748;DHT22;12054;53.662;10.126;2023-02-01T03:50:21;5.30;99.90
23748;DHT22;12054;53.662;10.126;2023-02-01T03:52:53;5.30;99.90
23748;DHT22;12054;53.662;10.126;2023-02-01T03:55:23;5.30;99.90
23748;DHT22;12054;53.662;10.126;2023-02-01T03:57:58;5.30;99.90
23748;DHT22;12054;53.662;10.126;2023-02-01T04:00:26;5.30;99.90
23748;DHT22;12054;53.662;10.126;2023-02-01T04:02:53;5.30;99.90
23748;DHT22;12054;53.662;10.126;2023-02-01T04:05:19;5.30;99.90
23748;DHT22;12054;53.662;10.126;2023-02-01T04:07:45;5.30;99.90
23748;DHT22;12054;53.662;10.126;2023-02-01T04:10:11;5.30;99.90
23748;DHT22;12054;53.662;10.126;2023-02-01T04:12:37;5.30;99.90
23748;DHT22;12054;53.662;10.126;2023-02-01T04:15:03;5.30;99.90
23748;DHT22;12054;53.662;10.126;2023-02-01T04:17:29;5.30;99.90
23748;DHT22;12054;53.662;10.126;2023-02-01T04:19:54;5.30;99.90
23748;DHT22;12054;53.662;10.126;2023-02-01T04:22:20;5.30;99.90
23748;DHT22;12054;53.662;10.126;2023-02-01T04:24:45;5.30;99.90
23748;DHT22;12054;53.662;10.126;2023-02-01T04:27:11;5.30;99.90
23748;DHT22;12054;53.662;10.126;2023-02-01T04:29:37;5.30;99.90
23748;DHT22;12054;53.662;10.126;2023-02-01T04:32:03;5.30;99.90
23748;DHT22;12054;53.662;10.126;2023-02-01T04:34:28;5.30;99.90
23748;DHT22;12054;53.662;10.126;2023-02-01T04:36:54;5.20;99.90
23748;DHT22;12054;53.662;10.126;2023-02-01T04:39:19;5.20;99.90
23748;DHT22;12054;53.662;10.126;2023-02-01T04:41:45;5.20;99.90
23748;DHT22;12054;53.662;10.126;2023-02-01T04:44:15;5.10;99.90
23748;DHT22;12054;53.662;10.126;2023-02-01T04:46:41;5.10;99.90
23748;DHT22;12054;53.662;10.126;2023-02-01T04:49:12;5.10;99.90
23748;DHT22;12054;53.662;10.126;2023-02-01T04:51:38;5.10;99.90
23748;DHT22;12054;53.662;10.126;2023-02-01T04:54:04;5.10;99.90
23748;DHT22;12054;53.662;10.126;2023-02-01T04:56:29;5.10;99.90
23748;DHT22;12054;53.662;10.126;2023-02-01T04:58:55;5.10;99.90
23748;DHT22;12054;53.662;10.126;2023-02-01T05:01:21;5.10;99.90
23748;DHT22;12054;53.662;10.126;2023-02-01T05:03:48;5.10;99.90
23748;DHT22;12054;53.662;10.126;2023-02-01T05:06:13;5.10;99.90
23748;DHT22;12054;53.662;10.126;2023-02-01T05:08:39;5.00;99.90
23748;DHT22;12054;53.662;10.126;2023-02-01T05:11:05;5.00;99.90
23748;DHT22;12054;53.662;10.126;2023-02-01T05:13:30;5.00;99.90
23748;DHT22;12054;53.662;10.126;2023-02-01T05:16:14;5.00;99.90
23748;DHT22;12054;53.662;10.126;2023-02-01T05:18:40;5.00;99.90
23748;DHT22;12054;53.662;10.126;2023-02-01T05:21:05;5.00;99.90
23748;DHT22;12054;53.662;10.126;2023-02-01T05:23:31;4.90;99.90
23748;DHT22;12054;53.662;10.126;2023-02-01T05:26:01;5.00;99.90
23748;DHT22;12054;53.662;10.126;2023-02-01T05:28:27;5.00;99.90
23748;DHT22;12054;53.662;10.126;2023-02-01T05:30:53;5.00;99.90
23748;DHT22;12054;53.662;10.126;2023-02-01T05:33:19;4.90;99.90
23748;DHT22;12054;53.662;10.126;2023-02-01T05:35:45;4.90;99.90
23748;DHT22;12054;53.662;10.126;2023-02-01T05:38:10;4.90;99.90
23748;DHT22;12054;53.662;10.126;2023-02-01T05:40:36;4.90;99.90
23748;DHT22;12054;53.662;10.126;2023-02-01T05:43:01;4.90;99.90
23748;DHT22;12054;53.662;10.126;2023-02-01T05:45:27;4.90;99.90
23748;DHT22;12054;53.662;10.126;2023-02-01T05:47:52;4.90;99.90
23748;DHT22;12054;53.662;10.126;2023-02-01T05:50:18;4.80;99.90
23748;DHT22;12054;53.662;10.126;2023-02-01T05:52:45;4.80;99.90
23748;DHT22;12054;53.662;10.126;2023-02-01T05:55:10;4.80;99.90
23748;DHT22;12054;53.662;10.126;2023-02-01T05:57:36;4.70;99.90
23748;DHT22;12054;53.662;10.126;2023-02-01T06:00:02;4.70;99.90
23748;DHT22;12054;53.662;10.126;2023-02-01T06:02:28;4.70;99.90
23748;DHT22;12054;53.662;10.126;2023-02-01T06:04:53;4.60;99.90
23748;DHT22;12054;53.662;10.126;2023-02-01T06:07:20;4.60;99.90
23748;DHT22;12054;53.662;10.126;2023-02-01T06:09:45;4.60;99.90
23748;DHT22;12054;53.662;10.126;2023-02-01T06:12:11;4.60;99.90
23748;DHT22;12054;53.662;10.126;2023-02-01T06:14:36;4.60;99.90
23748;DHT22;12054;53.662;10.126;2023-02-01T06:17:02;4.60;99.90
23748;DHT22;12054;53.662;10.126;2023-02-01T06:19:28;4.50;99.90
23748;DHT22;12054;53.662;10.126;2023-02-01T06:21:53;4.50;99.90
23748;DHT22;12054;53.662;10.126;2023-02-01T06:24:19;4.50;99.90
23748;DHT22;12054;53.662;10.126;2023-02-01T06:26:45;4.50;99.90
23748;DHT22;12054;53.662;10.126;2023-02-01T06:29:10;4.40;99.90
23748;DHT22;12054;53.662;10.126;2023-02-01T06:31:37;4.40;99.90
23748;DHT22;12054;53.662;10.126;2023-02-01T06:34:03;4.50;99.90
23748;DHT22;12054;53.662;10.126;2023-02-01T06:36:29;4.40;99.90
23748;DHT22;12054;53.662;10.126;2023-02-01T06:38:55;4.40;99.90
23748;DHT22;12054;53.662;10.126;2023-02-01T06:41:22;4.40;99.90
23748;DHT22;12054;53.662;10.126;2023-02-01T06:43:47;4.40;99.90
23748;DHT22;12054;53.662;10.126;2023-02-01T06:46:13;4.40;99.90
23748;DHT22;12054;53.662;10.126;2023-02-01T06:48:39;4.40;99.90
23748;DHT22;12054;53.662;10.126;2023-02-01T06:51:06;4.40;99.90
23748;DHT22;12054;53.662;10.126;2023-02-01T06:53:31;4.50;99.90
23748;DHT22;12054;53.662;10.126;2023-02-01T06:55:59;4.40;99.90
23748;DHT22;12054;53.662;10.126;2023-02-01T06:58:28;4.40;99.90
23748;DHT22;12054;53.662;10.126;2023-02-01T07:00:55;4.40;99.90
23748;DHT22;12054;53.662;10.126;2023-02-01T07:03:20;4.40;99.90
23748;DHT22;12054;53.662;10.126;2023-02-01T07:05:46;4.40;99.90
23748;DHT22;12054;53.662;10.126;2023-02-01T07:08:11;4.40;99.90
23748;DHT22;12054;53.662;10.126;2023-02-01T07:10:37;4.40;99.90
23748;DHT22;12054;53.662;10.126;2023-02-01T07:13:03;4.40;99.90
23748;DHT22;12054;53.662;10.126;2023-02-01T07:15:28;4.40;99.90
23748;DHT22;12054;53.662;10.126;2023-02-01T07:17:55;4.40;99.90
23748;DHT22;12054;53.662;10.126;2023-02-01T07:20:20;4.40;99.90
23748;DHT22;12054;53.662;10.126;2023-02-01T07:22:46;4.50;99.90
23748;DHT22;12054;53.662;10.126;2023-02-01T07:25:11;4.50;99.90
23748;DHT22;12054;53.662;10.126;2023-02-01T07:27:37;4.50;99.90
23748;DHT22;12054;53.662;10.126;2023-02-01T07:30:06;4.50;99.90
23748;DHT22;12054;53.662;10.126;2023-02-01T07:32:32;4.50;99.90
23748;DHT22;12054;53.662;10.126;2023-02-01T07:34:57;4.50;99.90
23748;DHT22;12054;53.662;10.126;2023-02-01T07:37:23;4.60;99.90
23748;DHT22;12054;53.662;10.126;2023-02-01T07:39:51;4.60;99.90
23748;DHT22;12054;53.662;10.126;2023-02-01T07:42:17;4.60;99.90
23748;DHT22;12054;53.662;10.126;2023-02-01T07:44:43;4.60;99.90
23748;DHT22;12054;53.662;10.126;2023-02-01T07:47:08;4.60;99.90
23748;DHT22;12054;53.662;10.126;2023-02-01T07:49:34;4.60;99.90
23748;DHT22;12054;53.662;10.126;2023-02-01T07:52:00;4.70;99.90
23748;DHT22;12054;53.662;10.126;2023-02-01T07:54:25;4.70;99.90
23748;DHT22;12054;53.662;10.126;2023-02-01T07:56:51;4.70;99.90
23748;DHT22;12054;53.662;10.126;2023-02-01T07:59:16;4.80;99.90
23748;DHT22;12054;53.662;10.126;2023-02-01T08:01:42;4.80;99.90
23748;DHT22;12054;53.662;10.126;2023-02-01T08:04:11;4.80;99.90
23748;DHT22;12054;53.662;10.126;2023-02-01T08:06:37;4.80;99.90
23748;DHT22;12054;53.662;10.126;2023-02-01T08:09:06;4.90;99.90
23748;DHT22;12054;53.662;10.126;2023-02-01T08:11:33;4.70;99.90
23748;DHT22;12054;53.662;10.126;2023-02-01T08:13:59;5.00;99.90
23748;DHT22;12054;53.662;10.126;2023-02-01T08:16:26;5.00;99.90
23748;DHT22;12054;53.662;10.126;2023-02-01T08:18:56;5.00;99.90
23748;DHT22;12054;53.662;10.126;2023-02-01T08:21:27;5.00;99.90
23748;DHT22;12054;53.662;10.126;2023-02-01T08:24:05;5.00;99.90
23748;DHT22;12054;53.662;10.126;2023-02-01T08:26:31;5.10;99.90
23748;DHT22;12054;53.662;10.126;2023-02-01T08:28:59;5.10;99.90
23748;DHT22;12054;53.662;10.126;2023-02-01T08:31:27;5.20;99.90
23748;DHT22;12054;53.662;10.126;2023-02-01T08:33:55;5.10;99.90
23748;DHT22;12054;53.662;10.126;2023-02-01T08:36:23;5.10;99.90
23748;DHT22;12054;53.662;10.126;2023-02-01T08:38:48;5.10;99.90
23748;DHT22;12054;53.662;10.126;2023-02-01T08:41:16;5.20;99.90
23748;DHT22;12054;53.662;10.126;2023-02-01T08:43:46;5.30;99.90
23748;DHT22;12054;53.662;10.126;2023-02-01T08:46:13;5.30;99.90
23748;DHT22;12054;53.662;10.126;2023-02-01T08:48:39;5.30;99.90
23748;DHT22;12054;53.662;10.126;2023-02-01T08:51:07;5.30;99.90
23748;DHT22;12054;53.662;10.126;2023-02-01T08:53:33;5.30;99.90
23748;DHT22;12054;53.662;10.126;2023-02-01T08:56:01;5.50;99.90
23748;DHT22;12054;53.662;10.126;2023-02-01T08:58:27;5.50;99.90
23748;DHT22;12054;53.662;10.126;2023-02-01T09:00:56;5.50;99.90
23748;DHT22;12054;53.662;10.126;2023-02-01T09:03:24;5.40;99.90
23748;DHT22;12054;53.662;10.126;2023-02-01T09:05:51;5.40;99.90
23748;DHT22;12054;53.662;10.126;2023-02-01T09:08:17;5.40;99.90
23748;DHT22;12054;53.662;10.126;2023-02-01T09:10:50;5.50;99.90
23748;DHT22;12054;53.662;10.126;2023-02-01T09:13:16;5.60;99.90
23748;DHT22;12054;53.662;10.126;2023-02-01T09:15:50;5.80;99.90
23748;DHT22;12054;53.662;10.126;2023-02-01T09:18:15;5.80;99.90
23748;DHT22;12054;53.662;10.126;2023-02-01T09:20:41;6.00;99.90
23748;DHT22;12054;53.662;10.126;2023-02-01T09:23:07;5.90;99.90
23748;DHT22;12054;53.662;10.126;2023-02-01T09:25:37;5.90;99.90
23748;DHT22;12054;53.662;10.126;2023-02-01T09:28:04;5.90;99.90
23748;DHT22;12054;53.662;10.126;2023-02-01T09:30:32;6.10;99.90
23748;DHT22;12054;53.662;10.126;2023-02-01T09:32:58;6.00;99.90
23748;DHT22;12054;53.662;10.126;2023-02-01T09:35:23;6.00;99.90
23748;DHT22;12054;53.662;10.126;2023-02-01T09:37:49;6.10;99.90
23748;DHT22;12054;53.662;10.126;2023-02-01T09:40:16;6.10;99.90
23748;DHT22;12054;53.662;10.126;2023-02-01T09:48:16;6.40;99.90
23748;DHT22;12054;53.662;10.126;2023-02-01T09:50:52;6.40;99.90
23748;DHT22;12054;53.662;10.126;2023-02-01T09:53:27;6.50;99.90
23748;DHT22;12054;53.662;10.126;2023-02-01T09:56:02;6.50;99.90
23748;DHT22;12054;53.662;10.126;2023-02-01T09:58:42;6.50;99.90
23748;DHT22;12054;53.662;10.126;2023-02-01T10:01:25;6.50;99.90
23748;DHT22;12054;53.662;10.126;2023-02-01T10:03:56;6.60;99.90
23748;DHT22;12054;53.662;10.126;2023-02-01T10:09:46;6.60;99.90
23748;DHT22;12054;53.662;10.126;2023-02-01T10:15:53;6.60;99.90
23748;DHT22;12054;53.662;10.126;2023-02-01T10:18:31;6.70;99.90
23748;DHT22;12054;53.662;10.126;2023-02-01T10:27:01;6.70;99.90
23748;DHT22;12054;53.662;10.126;2023-02-01T10:29:33;6.70;99.90
23748;DHT22;12054;53.662;10.126;2023-02-01T10:32:00;6.60;99.90
23748;DHT22;12054;53.662;10.126;2023-02-01T10:34:34;6.60;99.90
23748;DHT22;12054;53.662;10.126;2023-02-01T10:37:18;6.50;99.90
23748;DHT22;12054;53.662;10.126;2023-02-01T10:39:48;6.50;99.90
23748;DHT22;12054;53.662;10.126;2023-02-01T10:42:17;6.50;99.90
23748;DHT22;12054;53.662;10.126;2023-02-01T10:44:47;6.50;99.90
23748;DHT22;12054;53.662;10.126;2023-02-01T10:47:13;6.40;99.90
23748;DHT22;12054;53.662;10.126;2023-02-01T10:52:51;6.40;99.90
23748;DHT22;12054;53.662;10.126;2023-02-01T10:55:41;6.50;99.90
23748;DHT22;12054;53.662;10.126;2023-02-01T10:58:19;6.40;99.90
23748;DHT22;12054;53.662;10.126;2023-02-01T11:06:01;6.50;99.90
23748;DHT22;12054;53.662;10.126;2023-02-01T11:08:28;6.50;99.90
23748;DHT22;12054;53.662;10.126;2023-02-01T11:11:02;6.40;99.90
23748;DHT22;12054;53.662;10.126;2023-02-01T11:13:32;6.50;99.90
23748;DHT22;12054;53.662;10.126;2023-02-01T11:16:03;6.50;99.90
23748;DHT22;12054;53.662;10.126;2023-02-01T11:18:31;6.40;99.90
23748;DHT22;12054;53.662;10.126;2023-02-01T11:21:00;6.50;99.90
23748;DHT22;12054;53.662;10.126;2023-02-01T11:23:27;6.40;99.90
23748;DHT22;12054;53.662;10.126;2023-02-01T11:26:00;6.40;99.90
23748;DHT22;12054;53.662;10.126;2023-02-01T11:28:29;6.40;99.90
23748;DHT22;12054;53.662;10.126;2023-02-01T11:30:59;6.40;99.90
23748;DHT22;12054;53.662;10.126;2023-02-01T11:33:29;6.40;99.90
23748;DHT22;12054;53.662;10.126;2023-02-01T11:35:56;6.40;99.90
23748;DHT22;12054;53.662;10.126;2023-02-01T11:38:29;6.50;99.90
23748;DHT22;12054;53.662;10.126;2023-02-01T11:41:12;6.40;99.90
23748;DHT22;12054;53.662;10.126;2023-02-01T11:43:57;6.40;99.90
23748;DHT22;12054;53.662;10.126;2023-02-01T11:46:28;6.50;99.90
23748;DHT22;12054;53.662;10.126;2023-02-01T11:48:55;6.40;99.90
23748;DHT22;12054;53.662;10.126;2023-02-01T11:54:20;6.50;99.90
23748;DHT22;12054;53.662;10.126;2023-02-01T11:57:11;6.50;99.90
23748;DHT22;12054;53.662;10.126;2023-02-01T12:00:16;6.50;99.90
23748;DHT22;12054;53.662;10.126;2023-02-01T12:05:17;6.50;99.90
23748;DHT22;12054;53.662;10.126;2023-02-01T12:08:20;6.50;99.90
23748;DHT22;12054;53.662;10.126;2023-02-01T12:10:57;6.50;99.90
23748;DHT22;12054;53.662;10.126;2023-02-01T12:22:03;6.40;99.90
23748;DHT22;12054;53.662;10.126;2023-02-01T12:24:42;6.40;99.90
23748;DHT22;12054;53.662;10.126;2023-02-01T12:27:41;6.40;99.90
23748;DHT22;12054;53.662;10.126;2023-02-01T12:30:14;6.40;99.90
23748;DHT22;12054;53.662;10.126;2023-02-01T12:36:07;6.40;99.90
23748;DHT22;12054;53.662;10.126;2023-02-01T12:42:31;6.30;99.90
23748;DHT22;12054;53.662;10.126;2023-02-01T12:45:14;6.20;99.90
23748;DHT22;12054;53.662;10.126;2023-02-01T12:47:57;6.20;99.90
23748;DHT22;12054;53.662;10.126;2023-02-01T12:50:49;6.20;99.90
23748;DHT22;12054;53.662;10.126;2023-02-01T12:53:23;6.10;99.90
23748;DHT22;12054;53.662;10.126;2023-02-01T12:55:54;6.00;99.90
23748;DHT22;12054;53.662;10.126;2023-02-01T12:58:29;6.00;99.90
23748;DHT22;12054;53.662;10.126;2023-02-01T13:01:08;6.00;99.90
23748;DHT22;12054;53.662;10.126;2023-02-01T13:06:17;5.90;99.90
23748;DHT22;12054;53.662;10.126;2023-02-01T13:09:04;5.90;99.90
23748;DHT22;12054;53.662;10.126;2023-02-01T13:11:42;5.80;99.90
23748;DHT22;12054;53.662;10.126;2023-02-01T13:14:33;5.80;99.90
23748;DHT22;12054;53.662;10.126;2023-02-01T13:17:12;5.80;99.90
23748;DHT22;12054;53.662;10.126;2023-02-01T13:22:40;5.80;99.90
23748;DHT22;12054;53.662;10.126;2023-02-01T13:25:14;5.80;99.90
23748;DHT22;12054;53.662;10.126;2023-02-01T13:27:41;5.80;99.90
23748;DHT22;12054;53.662;10.126;2023-02-01T13:30:22;5.80;99.90
23748;DHT22;12054;53.662;10.126;2023-02-01T13:33:12;5.80;99.90
23748;DHT22;12054;53.662;10.126;2023-02-01T13:36:15;5.80;99.90
23748;DHT22;12054;53.662;10.126;2023-02-01T13:41:50;5.90;99.90
23748;DHT22;12054;53.662;10.126;2023-02-01T13:44:24;5.90;99.90
23748;DHT22;12054;53.662;10.126;2023-02-01T13:46:54;5.90;99.90
23748;DHT22;12054;53.662;10.126;2023-02-01T13:49:28;5.90;99.90
23748;DHT22;12054;53.662;10.126;2023-02-01T13:51:58;5.80;99.90
23748;DHT22;12054;53.662;10.126;2023-02-01T13:54:36;5.90;99.90
23748;DHT22;12054;53.662;10.126;2023-02-01T13:57:04;5.80;99.90
23748;DHT22;12054;53.662;10.126;2023-02-01T14:13:32;5.80;99.90
23748;DHT22;12054;53.662;10.126;2023-02-01T14:21:25;5.80;99.90
23748;DHT22;12054;53.662;10.126;2023-02-01T14:26:24;5.80;99.90
23748;DHT22;12054;53.662;10.126;2023-02-01T14:29:00;5.70;99.90
23748;DHT22;12054;53.662;10.126;2023-02-01T14:31:37;5.70;99.90
23748;DHT22;12054;53.662;10.126;2023-02-01T14:34:12;5.70;99.90
23748;DHT22;12054;53.662;10.126;2023-02-01T14:36:42;5.70;99.90
23748;DHT22;12054;53.662;10.126;2023-02-01T14:41:47;5.60;99.90
23748;DHT22;12054;53.662;10.126;2023-02-01T14:44:24;5.60;99.90
23748;DHT22;12054;53.662;10.126;2023-02-01T14:47:10;5.60;99.90
23748;DHT22;12054;53.662;10.126;2023-02-01T14:52:50;5.60;99.90
23748;DHT22;12054;53.662;10.126;2023-02-01T15:01:00;5.50;99.90
23748;DHT22;12054;53.662;10.126;2023-02-01T15:03:41;5.50;99.90
23748;DHT22;12054;53.662;10.126;2023-02-01T15:09:16;5.50;99.90
23748;DHT22;12054;53.662;10.126;2023-02-01T15:14:23;5.50;99.90
23748;DHT22;12054;53.662;10.126;2023-02-01T15:16:49;5.50;99.90
23748;DHT22;12054;53.662;10.126;2023-02-01T15:19:25;5.50;99.90
23748;DHT22;12054;53.662;10.126;2023-02-01T15:21:54;5.50;99.90
23748;DHT22;12054;53.662;10.126;2023-02-01T15:24:29;5.50;99.90
23748;DHT22;12054;53.662;10.126;2023-02-01T15:26:58;5.50;99.90
23748;DHT22;12054;53.662;10.126;2023-02-01T15:29:27;5.50;99.90
23748;DHT22;12054;53.662;10.126;2023-02-01T15:31:57;5.50;99.90
23748;DHT22;12054;53.662;10.126;2023-02-01T15:34:23;5.50;99.90
23748;DHT22;12054;53.662;10.126;2023-02-01T15:36:50;5.50;99.90
23748;DHT22;12054;53.662;10.126;2023-02-01T15:39:34;5.50;99.90
23748;DHT22;12054;53.662;10.126;2023-02-01T15:42:17;5.40;99.90
23748;DHT22;12054;53.662;10.126;2023-02-01T15:44:45;5.50;99.90
23748;DHT22;12054;53.662;10.126;2023-02-01T15:47:28;5.40;99.90
23748;DHT22;12054;53.662;10.126;2023-02-01T15:49:58;5.40;99.90
23748;DHT22;12054;53.662;10.126;2023-02-01T15:52:39;5.40;99.90
23748;DHT22;12054;53.662;10.126;2023-02-01T15:55:16;5.40;99.90
23748;DHT22;12054;53.662;10.126;2023-02-01T15:57:43;5.40;99.90
23748;DHT22;12054;53.662;10.126;2023-02-01T16:02:52;5.40;99.90
23748;DHT22;12054;53.662;10.126;2023-02-01T16:05:44;5.40;99.90
23748;DHT22;12054;53.662;10.126;2023-02-01T16:08:16;5.40;99.90
23748;DHT22;12054;53.662;10.126;2023-02-01T16:10:48;5.40;99.90
23748;DHT22;12054;53.662;10.126;2023-02-01T16:13:15;5.40;99.90
23748;DHT22;12054;53.662;10.126;2023-02-01T16:15:43;5.40;99.90
23748;DHT22;12054;53.662;10.126;2023-02-01T16:18:13;5.40;99.90
23748;DHT22;12054;53.662;10.126;2023-02-01T16:20:40;5.40;99.90
23748;DHT22;12054;53.662;10.126;2023-02-01T16:23:07;5.40;99.90
23748;DHT22;12054;53.662;10.126;2023-02-01T16:25:33;5.40;99.90
23748;DHT22;12054;53.662;10.126;2023-02-01T16:27:59;5.40;99.90
23748;DHT22;12054;53.662;10.126;2023-02-01T16:30:27;5.40;99.90
23748;DHT22;12054;53.662;10.126;2023-02-01T16:32:58;5.40;99.90
23748;DHT22;12054;53.662;10.126;2023-02-01T16:35:40;5.50;99.90
23748;DHT22;12054;53.662;10.126;2023-02-01T16:38:24;5.40;99.90
23748;DHT22;12054;53.662;10.126;2023-02-01T16:40:51;5.50;99.90
23748;DHT22;12054;53.662;10.126;2023-02-01T16:43:22;5.50;99.90
23748;DHT22;12054;53.662;10.126;2023-02-01T16:45:50;5.40;99.90
23748;DHT22;12054;53.662;10.126;2023-02-01T16:48:30;5.30;99.90
23748;DHT22;12054;53.662;10.126;2023-02-01T16:51:00;5.40;99.90
23748;DHT22;12054;53.662;10.126;2023-02-01T16:53:27;5.40;99.90
23748;DHT22;12054;53.662;10.126;2023-02-01T16:55:54;5.50;99.90
23748;DHT22;12054;53.662;10.126;2023-02-01T16:58:20;5.50;99.90
23748;DHT22;12054;53.662;10.126;2023-02-01T17:00:47;5.50;99.90
23748;DHT22;12054;53.662;10.126;2023-02-01T17:03:13;5.50;99.90
23748;DHT22;12054;53.662;10.126;2023-02-01T17:05:45;5.50;99.90
23748;DHT22;12054;53.662;10.126;2023-02-01T17:08:15;5.50;99.90
23748;DHT22;12054;53.662;10.126;2023-02-01T17:10:41;5.50;99.90
23748;DHT22;12054;53.662;10.126;2023-02-01T17:13:16;5.60;99.90
23748;DHT22;12054;53.662;10.126;2023-02-01T17:16:03;5.50;99.90
23748;DHT22;12054;53.662;10.126;2023-02-01T17:18:32;5.60;99.90
23748;DHT22;12054;53.662;10.126;2023-02-01T17:20:59;5.50;99.90
23748;DHT22;12054;53.662;10.126;2023-02-01T17:23:26;5.60;99.90
23748;DHT22;12054;53.662;10.126;2023-02-01T17:25:52;5.60;99.90
23748;DHT22;12054;53.662;10.126;2023-02-01T17:28:18;5.60;99.90
23748;DHT22;12054;53.662;10.126;2023-02-01T17:30:43;5.60;99.90
23748;DHT22;12054;53.662;10.126;2023-02-01T17:36:16;5.60;99.90
23748;DHT22;12054;53.662;10.126;2023-02-01T17:38:42;5.60;99.90
23748;DHT22;12054;53.662;10.126;2023-02-01T17:41:12;5.60;99.90
23748;DHT22;12054;53.662;10.126;2023-02-01T17:43:39;5.60;99.90
23748;DHT22;12054;53.662;10.126;2023-02-01T17:46:13;5.60;99.90
23748;DHT22;12054;53.662;10.126;2023-02-01T17:48:39;5.50;99.90
23748;DHT22;12054;53.662;10.126;2023-02-01T17:53:39;5.60;99.90